ダーウィン の空港の天気 - METARとTAF

ダーウィン国際空港 ( YPDN / DRW ) - オーストラリア ノーザンテリトリーダーウィン
飛行場実況気象(Metar)
観測時間05/29 09:00 ACST (05/28 23:30 UTC)
風向・風速東 6m/s
視程10km以上
天気現象
少しの雲 雲底高度 760m
気温27℃
湿度66%
気圧1012hPa
METARYPDN 282330Z 09011KT 9999 FEW025 27/20 Q1012
過去の天気等 Google飛行場航空写真 Wunderground天気予報

過去48時間のMETAR

飛行場予報(TAF)
発表時間: 5/29 08:41 ACST (5/28 23:11 UTC)
予報対象時間: 29日9時 ACST ~ 30日15時 ACST
風向・風速東北東 5m/s
視程10km以上
少しの雲 雲底高度 1070m
29日12時 ACST から
風向・風速北 5m/s
視程10km以上
少しの雲 雲底高度 1220m
29日21時 ACST から
風向・風速不定 2m/s
視程10km以上
少しの雲 雲底高度 610m
30日12時 ACST から
風向・風速北北西 4m/s
視程10km以上
少しの雲 雲底高度 1070m
TAF YPDN 282311Z 2900/3006 07010KT 9999 FEW035
FM290300 35010KT 9999 FEW040
FM291200 VRB04KT 9999 FEW020
FM300300 34008KT 9999 FEW035